createdAt,value
2019-03-17T00:01:37.903Z,22.03
2019-03-17T00:04:31.320Z,21.63
2019-03-17T00:07:09.731Z,21.87
2019-03-17T00:09:54.813Z,22.40
2019-03-17T00:12:40.163Z,22.23
2019-03-17T00:15:25.657Z,22.93
2019-03-17T00:18:10.878Z,22.70
2019-03-17T00:20:55.841Z,22.73
2019-03-17T00:23:41.714Z,23.30
2019-03-17T00:26:27.019Z,23.70
2019-03-17T00:29:12.217Z,23.53
2019-03-17T00:31:57.693Z,24.53
2019-03-17T00:34:44.313Z,25.60
2019-03-17T00:37:29.987Z,25.00
2019-03-17T00:40:15.127Z,25.67
2019-03-17T00:43:00.039Z,25.80
2019-03-17T00:45:45.405Z,25.97
2019-03-17T00:48:31.634Z,24.03
2019-03-17T00:51:16.698Z,28.63
2019-03-17T00:54:01.813Z,25.60
2019-03-17T00:56:46.748Z,28.47
2019-03-17T00:59:33.668Z,29.97
2019-03-17T01:02:20.034Z,28.83
2019-03-17T01:05:05.298Z,28.93
2019-03-17T01:07:50.467Z,28.67
2019-03-17T01:10:35.548Z,29.47
2019-03-17T01:13:20.594Z,30.43
2019-03-17T01:16:06.149Z,29.70
2019-03-17T01:18:51.294Z,30.73
2019-03-17T01:21:36.512Z,29.63
2019-03-17T01:24:21.855Z,29.20
2019-03-17T01:27:08.259Z,28.07
2019-03-17T01:29:53.916Z,29.03
2019-03-17T01:32:39.625Z,30.03
2019-03-17T01:35:25.380Z,29.40
2019-03-17T01:38:11.044Z,28.50
2019-03-17T01:40:56.450Z,28.97
2019-03-17T01:43:43.379Z,29.03
2019-03-17T01:46:28.399Z,29.40
2019-03-17T01:49:13.740Z,29.80
2019-03-17T01:51:59.168Z,27.43
2019-03-17T01:54:44.451Z,27.50
2019-03-17T01:57:29.727Z,28.63
2019-03-17T02:00:15.290Z,26.50
2019-03-17T02:03:00.403Z,27.67
2019-03-17T02:05:45.838Z,26.63
2019-03-17T02:08:31.013Z,24.87
2019-03-17T02:11:16.452Z,24.97
2019-03-17T02:14:02.130Z,26.10
2019-03-17T02:16:47.169Z,25.13
2019-03-17T02:19:31.978Z,26.03
2019-03-17T02:22:17.293Z,25.73
2019-03-17T02:25:04.420Z,25.90
2019-03-17T02:27:50.549Z,22.90
2019-03-17T02:30:36.203Z,22.83
2019-03-17T02:33:21.004Z,24.37
2019-03-17T02:36:08.411Z,22.80
2019-03-17T02:38:53.421Z,23.10
2019-03-17T02:41:38.514Z,24.23
2019-03-17T02:44:25.403Z,25.07
2019-03-17T02:47:10.309Z,23.83
2019-03-17T02:49:55.007Z,23.50
2019-03-17T02:52:42.359Z,24.27
2019-03-17T02:55:27.244Z,24.57
2019-03-17T02:58:12.702Z,24.63
2019-03-17T03:00:58.014Z,24.07
2019-03-17T03:03:42.992Z,24.70
2019-03-17T03:06:28.048Z,22.87
2019-03-17T03:09:13.469Z,24.60
2019-03-17T03:11:58.428Z,23.47
2019-03-17T03:14:45.453Z,22.90
2019-03-17T03:17:30.674Z,21.83
2019-03-17T03:20:15.839Z,22.00
2019-03-17T03:23:01.170Z,22.23
2019-03-17T03:25:47.281Z,21.80
2019-03-17T03:28:32.464Z,21.50
2019-03-17T03:31:18.835Z,22.63
2019-03-17T03:34:04.088Z,21.63
2019-03-17T03:36:49.307Z,20.93
2019-03-17T03:39:34.397Z,20.67
2019-03-17T03:42:19.438Z,20.70
2019-03-17T03:45:11.334Z,21.43
2019-03-17T03:47:56.296Z,22.50
2019-03-17T03:50:41.615Z,21.73
2019-03-17T03:53:27.453Z,20.53
2019-03-17T03:56:12.719Z,23.60
2019-03-17T03:58:58.112Z,23.13
2019-03-17T04:01:43.381Z,21.07
2019-03-17T04:04:28.761Z,20.50
2019-03-17T04:07:13.867Z,23.70
2019-03-17T04:09:59.115Z,23.40
2019-03-17T04:12:44.607Z,21.30
2019-03-17T04:15:30.827Z,20.67
2019-03-17T04:18:16.251Z,19.63
2019-03-17T04:21:01.194Z,19.90
2019-03-17T04:23:47.018Z,18.23
2019-03-17T04:26:32.183Z,19.47
2019-03-17T04:29:17.421Z,20.53
2019-03-17T04:32:02.945Z,18.83
2019-03-17T04:34:47.863Z,19.10
2019-03-17T04:37:34.737Z,17.63
2019-03-17T04:40:19.691Z,17.20
2019-03-17T04:43:04.651Z,18.07
2019-03-17T04:45:51.010Z,16.33
2019-03-17T04:48:36.125Z,15.57
2019-03-17T04:51:20.870Z,15.83
2019-03-17T04:54:05.622Z,16.20
2019-03-17T04:56:50.953Z,14.40
2019-03-17T04:59:36.406Z,16.37
2019-03-17T05:02:21.530Z,14.60
2019-03-17T05:05:07.543Z,16.13
2019-03-17T05:07:52.687Z,15.40
2019-03-17T05:10:38.029Z,15.17
2019-03-17T05:13:23.244Z,14.93
2019-03-17T05:16:08.479Z,14.33
2019-03-17T05:18:53.764Z,14.23
2019-03-17T05:21:39.430Z,13.70
2019-03-17T05:24:25.390Z,13.83
2019-03-17T05:27:10.666Z,13.33
2019-03-17T05:29:55.836Z,13.27
2019-03-17T05:32:41.076Z,13.00
2019-03-17T05:35:26.032Z,12.80
2019-03-17T05:38:11.439Z,12.17
2019-03-17T05:40:56.656Z,12.57
2019-03-17T05:43:41.657Z,13.43
2019-03-17T05:46:26.515Z,12.03
2019-03-17T05:49:11.526Z,12.17
2019-03-17T05:51:56.470Z,11.80
2019-03-17T05:54:41.442Z,13.10
2019-03-17T05:57:26.705Z,11.30
2019-03-17T06:00:14.563Z,11.73
2019-03-17T06:02:59.778Z,10.97
2019-03-17T06:05:44.695Z,11.17
2019-03-17T06:08:29.698Z,11.97
2019-03-17T06:11:14.883Z,11.10
2019-03-17T06:13:59.754Z,11.20
2019-03-17T06:16:44.658Z,11.17
2019-03-17T06:19:29.757Z,10.80
2019-03-17T06:22:15.241Z,11.10
2019-03-17T06:25:00.640Z,10.20
2019-03-17T06:27:45.869Z,10.20
2019-03-17T06:30:33.369Z,10.67
2019-03-17T06:33:18.810Z,10.10
2019-03-17T06:36:04.238Z,9.50
2019-03-17T06:38:49.592Z,9.90
2019-03-17T06:41:34.772Z,10.07
2019-03-17T06:44:19.828Z,10.67
2019-03-17T06:47:05.891Z,9.47
2019-03-17T06:49:51.310Z,10.00
2019-03-17T06:52:36.752Z,9.47
2019-03-17T06:55:21.919Z,9.53
2019-03-17T06:58:07.114Z,9.70
2019-03-17T07:00:52.273Z,9.50
2019-03-17T07:03:37.732Z,9.30
2019-03-17T07:06:24.032Z,8.70
2019-03-17T07:09:10.283Z,9.03
2019-03-17T07:11:55.811Z,8.80
2019-03-17T07:14:40.787Z,8.27
2019-03-17T07:17:26.019Z,8.43
2019-03-17T07:20:12.510Z,8.40
2019-03-17T07:22:57.608Z,8.60
2019-03-17T07:25:42.924Z,8.33
2019-03-17T07:28:27.896Z,8.03
2019-03-17T07:31:13.291Z,8.83
2019-03-17T07:33:58.414Z,9.10
2019-03-17T07:36:43.603Z,8.90
2019-03-17T07:39:28.673Z,8.47
2019-03-17T07:42:13.463Z,8.07
2019-03-17T07:44:59.118Z,8.17
2019-03-17T07:47:44.498Z,7.67
2019-03-17T07:50:29.558Z,7.50
2019-03-17T07:53:14.677Z,7.33
2019-03-17T07:56:00.159Z,7.90
2019-03-17T07:58:46.410Z,8.47
2019-03-17T08:01:31.405Z,7.87
2019-03-17T08:04:17.210Z,8.53
2019-03-17T08:07:02.148Z,8.03
2019-03-17T08:09:48.983Z,7.20
2019-03-17T08:12:34.374Z,8.23
2019-03-17T08:15:19.792Z,8.23
2019-03-17T08:18:05.255Z,9.87
2019-03-17T08:20:50.114Z,7.63
2019-03-17T08:23:35.027Z,7.73
2019-03-17T08:26:20.234Z,7.97
2019-03-17T08:29:05.781Z,7.53
2019-03-17T08:31:50.763Z,7.43
2019-03-17T08:34:36.367Z,7.67
2019-03-17T08:37:21.773Z,7.30
2019-03-17T08:40:15.754Z,7.77
2019-03-17T08:43:02.713Z,7.20
2019-03-17T08:45:47.977Z,6.87
2019-03-17T08:48:33.487Z,6.53
2019-03-17T08:51:20.066Z,6.63
2019-03-17T08:54:05.376Z,7.13
2019-03-17T08:56:51.080Z,6.80
2019-03-17T08:59:36.488Z,6.87
2019-03-17T09:02:21.789Z,6.43
2019-03-17T09:05:07.274Z,7.30
2019-03-17T09:07:54.296Z,7.03
2019-03-17T09:10:39.902Z,6.70
2019-03-17T09:13:25.359Z,6.70
2019-03-17T09:16:10.168Z,6.63
2019-03-17T09:18:57.603Z,6.73
2019-03-17T09:21:42.175Z,6.87
2019-03-17T09:24:26.981Z,6.97
2019-03-17T09:27:12.211Z,7.30
2019-03-17T09:29:57.608Z,6.97
2019-03-17T09:32:43.822Z,6.80
2019-03-17T09:35:29.197Z,6.43
2019-03-17T09:38:14.404Z,7.67
2019-03-17T09:40:59.906Z,6.77
2019-03-17T09:43:45.058Z,6.43
2019-03-17T09:46:30.045Z,7.07
2019-03-17T09:49:15.395Z,7.60
2019-03-17T09:52:00.526Z,7.40
2019-03-17T09:54:45.756Z,6.60
2019-03-17T09:57:31.122Z,7.90
2019-03-17T10:00:20.813Z,7.67
2019-03-17T10:03:06.259Z,7.00
2019-03-17T10:05:51.794Z,7.37
2019-03-17T10:08:38.552Z,7.70
2019-03-17T10:11:24.781Z,6.93
2019-03-17T10:14:09.997Z,7.57
2019-03-17T10:16:55.220Z,7.13
2019-03-17T10:19:40.486Z,7.17
2019-03-17T10:22:27.899Z,6.87
2019-03-17T10:25:13.470Z,6.20
2019-03-17T10:27:58.177Z,6.20
2019-03-17T10:30:43.341Z,7.50
2019-03-17T10:33:29.822Z,7.03
2019-03-17T10:36:15.197Z,7.73
2019-03-17T10:39:11.885Z,7.20
2019-03-17T10:41:47.751Z,7.20
2019-03-17T10:44:34.908Z,7.23
2019-03-17T10:47:21.320Z,7.50
2019-03-17T10:50:13.489Z,6.60
2019-03-17T10:53:00.563Z,6.53
2019-03-17T10:55:45.610Z,6.60
2019-03-17T10:58:32.495Z,6.70
2019-03-17T11:01:17.711Z,7.00
2019-03-17T11:04:02.867Z,6.40
2019-03-17T11:06:48.328Z,6.27
2019-03-17T11:09:33.273Z,6.40
2019-03-17T11:12:18.691Z,5.60
2019-03-17T11:15:08.823Z,6.20
2019-03-17T11:17:54.474Z,6.53
2019-03-17T11:20:39.873Z,6.63
2019-03-17T11:23:24.975Z,6.70
2019-03-17T11:26:10.335Z,5.77
2019-03-17T11:28:55.821Z,5.07
2019-03-17T11:31:41.200Z,6.40
2019-03-17T11:34:27.000Z,5.63
2019-03-17T11:37:12.782Z,5.03
2019-03-17T11:39:58.095Z,5.50
2019-03-17T11:42:43.703Z,5.10
2019-03-17T11:45:28.610Z,4.67
2019-03-17T11:48:14.038Z,4.60
2019-03-17T11:50:59.095Z,5.07
2019-03-17T11:53:44.374Z,4.33
2019-03-17T11:56:29.650Z,5.03
2019-03-17T11:59:15.031Z,5.33
2019-03-17T12:02:01.456Z,4.47
2019-03-17T12:04:46.595Z,4.50
2019-03-17T12:07:32.959Z,6.30
2019-03-17T12:10:23.527Z,4.50
2019-03-17T12:13:08.485Z,4.77
2019-03-17T12:15:53.850Z,4.30
2019-03-17T12:18:38.780Z,4.73
2019-03-17T12:21:24.070Z,4.30
2019-03-17T12:24:09.811Z,4.33
2019-03-17T12:26:55.131Z,4.63
2019-03-17T12:29:40.392Z,5.53
2019-03-17T12:32:27.207Z,5.20
2019-03-17T12:35:12.513Z,4.50
2019-03-17T12:37:57.702Z,5.00
2019-03-17T12:40:42.995Z,6.57
2019-03-17T12:43:28.415Z,5.30
2019-03-17T12:46:13.652Z,4.33
2019-03-17T12:49:01.050Z,5.10
2019-03-17T12:51:46.077Z,5.27
2019-03-17T12:54:33.554Z,5.63
2019-03-17T12:57:18.697Z,5.00
2019-03-17T13:00:13.017Z,5.03
2019-03-17T13:02:58.366Z,4.60
2019-03-17T13:05:43.407Z,4.47
2019-03-17T13:08:30.261Z,5.10
2019-03-17T13:11:16.622Z,4.87
2019-03-17T13:14:01.805Z,5.07
2019-03-17T13:16:47.009Z,4.80
2019-03-17T13:19:32.189Z,4.60
2019-03-17T13:22:17.581Z,4.80
2019-03-17T13:25:04.661Z,4.83
2019-03-17T13:27:49.940Z,4.70
2019-03-17T13:30:35.017Z,5.23
2019-03-17T13:33:21.766Z,4.03
2019-03-17T13:36:08.772Z,5.20
2019-03-17T13:38:54.127Z,5.40
2019-03-17T13:41:41.426Z,4.13
2019-03-17T13:44:27.336Z,4.47
2019-03-17T13:47:15.597Z,4.90
2019-03-17T13:50:01.372Z,5.33
2019-03-17T13:52:46.844Z,4.97
2019-03-17T13:55:32.334Z,4.30
2019-03-17T13:58:17.489Z,5.27
2019-03-17T14:01:03.214Z,4.97
2019-03-17T14:03:48.118Z,5.50
2019-03-17T14:06:33.494Z,5.90
2019-03-17T14:09:18.967Z,4.40
2019-03-17T14:12:03.929Z,4.57
2019-03-17T14:14:49.234Z,5.07
2019-03-17T14:17:34.281Z,5.60
2019-03-17T14:20:21.282Z,6.53
2019-03-17T14:23:06.507Z,4.50
2019-03-17T14:25:51.513Z,5.50
2019-03-17T14:28:37.094Z,5.20
2019-03-17T14:31:22.374Z,9.23
2019-03-17T14:34:07.570Z,6.53
2019-03-17T14:36:52.955Z,6.60
2019-03-17T14:39:38.121Z,5.20
2019-03-17T14:42:23.358Z,6.33
2019-03-17T14:45:14.132Z,6.30
2019-03-17T14:47:59.440Z,4.60
2019-03-17T14:50:44.977Z,5.37
2019-03-17T14:53:30.075Z,4.60
2019-03-17T14:56:15.587Z,5.23
2019-03-17T14:59:00.552Z,6.10
2019-03-17T15:01:46.375Z,12.27
2019-03-17T15:04:31.809Z,10.67
2019-03-17T15:07:16.992Z,8.87
2019-03-17T15:10:04.223Z,6.87
2019-03-17T15:12:49.022Z,7.30
2019-03-17T15:15:34.254Z,8.50
2019-03-17T15:18:20.557Z,11.07
2019-03-17T15:21:05.830Z,6.60
2019-03-17T15:23:51.092Z,8.13
2019-03-17T15:26:36.416Z,7.87
2019-03-17T15:29:21.521Z,7.53
2019-03-17T15:32:06.787Z,7.83
2019-03-17T15:34:51.850Z,7.27
2019-03-17T15:37:37.491Z,8.63
2019-03-17T15:40:22.723Z,8.70
2019-03-17T15:43:07.919Z,8.20
2019-03-17T15:45:52.793Z,5.87
2019-03-17T15:48:38.211Z,6.90
2019-03-17T15:51:23.393Z,8.73
2019-03-17T15:54:08.925Z,6.77
2019-03-17T15:56:54.189Z,6.13
2019-03-17T15:59:39.564Z,8.87
2019-03-17T16:02:24.874Z,6.87
2019-03-17T16:05:10.377Z,6.27
2019-03-17T16:07:55.597Z,5.80
2019-03-17T16:10:41.073Z,6.47
2019-03-17T16:13:26.455Z,6.60
2019-03-17T16:16:11.482Z,5.97
2019-03-17T16:18:56.532Z,5.80
2019-03-17T16:21:41.990Z,6.17
2019-03-17T16:24:27.090Z,6.57
2019-03-17T16:27:12.276Z,7.37
2019-03-17T16:29:57.280Z,8.87
2019-03-17T16:32:42.157Z,10.20
2019-03-17T16:35:27.504Z,9.73
2019-03-17T16:38:12.706Z,10.30
2019-03-17T16:40:57.868Z,8.97
2019-03-17T16:43:43.131Z,9.10
2019-03-17T16:46:28.657Z,8.50
2019-03-17T16:49:14.171Z,8.90
2019-03-17T16:51:59.245Z,8.00
2019-03-17T16:54:44.529Z,9.77
2019-03-17T16:57:29.823Z,10.47
2019-03-17T17:00:20.872Z,8.57
2019-03-17T17:03:05.959Z,11.87
2019-03-17T17:05:51.119Z,11.43
2019-03-17T17:08:36.359Z,12.73
2019-03-17T17:11:41.950Z,14.20
2019-03-17T17:14:26.990Z,25.50
2019-03-17T17:17:12.135Z,26.37
2019-03-17T17:19:57.486Z,10.80
2019-03-17T17:22:42.896Z,10.80
2019-03-17T17:25:28.462Z,9.37
2019-03-17T17:28:13.678Z,9.60
2019-03-17T17:30:59.093Z,8.77
2019-03-17T17:33:44.301Z,8.87
2019-03-17T17:36:29.359Z,7.70
2019-03-17T17:39:14.826Z,7.03
2019-03-17T17:42:08.869Z,7.67
2019-03-17T17:44:47.188Z,8.17
2019-03-17T17:47:32.706Z,10.13
2019-03-17T17:50:26.751Z,9.00
2019-03-17T17:53:11.768Z,6.47
2019-03-17T17:55:57.525Z,7.40
2019-03-17T17:58:42.691Z,6.23
2019-03-17T18:01:27.476Z,6.00
2019-03-17T18:04:13.143Z,4.73
2019-03-17T18:06:58.291Z,5.63
2019-03-17T18:09:43.105Z,5.87
2019-03-17T18:12:28.247Z,5.07
2019-03-17T18:15:22.010Z,4.33
2019-03-17T18:18:07.345Z,3.60
2019-03-17T18:20:52.392Z,4.10
2019-03-17T18:23:37.651Z,3.57
2019-03-17T18:26:22.820Z,4.30
2019-03-17T18:29:08.171Z,3.90
2019-03-17T18:31:53.809Z,4.47
2019-03-17T18:34:38.797Z,6.03
2019-03-17T18:37:24.219Z,4.90
2019-03-17T18:40:13.984Z,5.13
2019-03-17T18:42:59.109Z,4.70
2019-03-17T18:45:44.368Z,7.10
2019-03-17T18:48:29.908Z,6.60
2019-03-17T18:51:15.068Z,5.20
2019-03-17T18:54:00.502Z,5.27
2019-03-17T18:56:45.600Z,5.20
2019-03-17T18:59:12.167Z,5.27
2019-03-17T19:01:38.796Z,5.07
2019-03-17T19:04:05.201Z,5.60
2019-03-17T19:06:31.663Z,5.23
2019-03-17T19:08:58.189Z,6.23
2019-03-17T19:11:24.609Z,5.67
2019-03-17T19:13:51.263Z,7.50
2019-03-17T19:16:17.955Z,6.60
2019-03-17T19:18:44.691Z,5.67
2019-03-17T19:21:11.158Z,11.37
2019-03-17T19:23:37.889Z,8.60
2019-03-17T19:26:04.340Z,5.83
2019-03-17T19:28:30.681Z,4.40
2019-03-17T19:30:57.129Z,8.97
2019-03-17T19:33:23.601Z,7.27
2019-03-17T19:35:50.325Z,9.40
2019-03-17T19:38:16.751Z,10.47
2019-03-17T19:40:43.239Z,13.53
2019-03-17T19:43:09.660Z,10.93
2019-03-17T19:45:36.456Z,9.50
2019-03-17T19:48:03.231Z,10.87
2019-03-17T19:50:29.835Z,10.43
2019-03-17T19:52:56.407Z,9.83
2019-03-17T19:55:22.709Z,9.47
2019-03-17T19:57:49.224Z,9.30
2019-03-17T20:00:19.529Z,8.20
2019-03-17T20:02:47.760Z,7.00
2019-03-17T20:05:14.794Z,7.17
2019-03-17T20:07:41.752Z,5.97
2019-03-17T20:10:24.969Z,6.90
2019-03-17T20:12:53.790Z,9.23
2019-03-17T20:15:20.279Z,11.70
2019-03-17T20:17:46.829Z,8.27
2019-03-17T20:20:13.658Z,6.73
2019-03-17T20:22:40.765Z,6.63
2019-03-17T20:25:07.549Z,6.30
2019-03-17T20:27:33.980Z,5.90
2019-03-17T20:30:00.502Z,6.20
2019-03-17T20:32:27.055Z,6.73
2019-03-17T20:34:53.437Z,6.40
2019-03-17T20:37:20.190Z,8.70
2019-03-17T20:39:48.216Z,9.27
2019-03-17T20:42:14.703Z,8.17
2019-03-17T20:44:41.177Z,7.37
2019-03-17T20:47:07.777Z,11.50
2019-03-17T20:49:34.580Z,13.27
2019-03-17T20:52:01.027Z,15.03
2019-03-17T20:54:27.546Z,13.53
2019-03-17T20:56:54.395Z,10.97
2019-03-17T20:59:21.342Z,7.47
2019-03-17T21:01:47.849Z,9.93
2019-03-17T21:04:14.224Z,6.43
2019-03-17T21:06:40.578Z,6.37
2019-03-17T21:09:07.318Z,6.40
2019-03-17T21:11:35.908Z,6.47
2019-03-17T21:14:04.639Z,5.80
2019-03-17T21:16:31.161Z,4.40
2019-03-17T21:18:59.694Z,4.50
2019-03-17T21:21:26.280Z,4.83
2019-03-17T21:23:52.709Z,5.30
2019-03-17T21:26:21.170Z,5.07
2019-03-17T21:28:50.202Z,5.10
2019-03-17T21:31:18.770Z,5.50
2019-03-17T21:33:47.195Z,5.93
2019-03-17T21:36:15.761Z,8.90
2019-03-17T21:38:44.189Z,7.30
2019-03-17T21:41:12.634Z,5.30
2019-03-17T21:43:59.984Z,5.60
2019-03-17T21:46:26.702Z,4.90
2019-03-17T21:48:53.256Z,5.00
2019-03-17T21:51:21.116Z,4.40
2019-03-17T21:53:47.630Z,4.47
2019-03-17T21:56:14.112Z,4.57
2019-03-17T21:58:40.991Z,4.80
2019-03-17T22:01:09.308Z,4.63
2019-03-17T22:03:36.061Z,4.77
2019-03-17T22:06:02.854Z,4.80
2019-03-17T22:08:29.271Z,5.10
2019-03-17T22:10:55.907Z,5.40
2019-03-17T22:13:24.425Z,5.07
2019-03-17T22:15:50.801Z,5.53
2019-03-17T22:18:17.499Z,5.20
2019-03-17T22:20:44.376Z,5.73
2019-03-17T22:23:10.971Z,5.57
2019-03-17T22:25:37.581Z,5.63
2019-03-17T22:28:08.683Z,5.30
2019-03-17T22:30:32.831Z,5.63
2019-03-17T22:32:59.497Z,5.80
2019-03-17T22:35:25.895Z,6.40
2019-03-17T22:37:52.310Z,6.53
2019-03-17T22:40:38.694Z,6.83
2019-03-17T22:43:05.160Z,7.20
2019-03-17T22:45:31.673Z,6.93
2019-03-17T22:47:58.775Z,6.93
2019-03-17T22:50:25.189Z,7.13
2019-03-17T22:52:51.699Z,6.93
2019-03-17T22:55:18.461Z,6.43
2019-03-17T22:57:46.249Z,6.87
2019-03-17T23:00:25.846Z,6.60
2019-03-17T23:02:52.499Z,7.03
2019-03-17T23:05:19.145Z,6.90
2019-03-17T23:07:45.880Z,6.30
2019-03-17T23:10:12.516Z,7.47
2019-03-17T23:12:39.153Z,8.40
2019-03-17T23:15:08.465Z,8.70
2019-03-17T23:17:36.311Z,9.13
2019-03-17T23:20:05.155Z,10.70
2019-03-17T23:22:32.210Z,11.50
2019-03-17T23:24:58.846Z,10.53
2019-03-17T23:27:25.494Z,9.50
2019-03-17T23:29:52.167Z,9.20
2019-03-17T23:32:18.856Z,9.70
2019-03-17T23:34:45.514Z,9.93
2019-03-17T23:37:12.206Z,9.20
2019-03-17T23:39:38.858Z,10.50
2019-03-17T23:42:05.548Z,10.53
2019-03-17T23:44:32.291Z,10.00
2019-03-17T23:46:58.950Z,9.43
2019-03-17T23:49:26.741Z,9.97
2019-03-17T23:51:53.731Z,10.63
2019-03-17T23:54:20.369Z,9.73
2019-03-17T23:56:47.357Z,10.00
2019-03-17T23:59:14.065Z,9.80
